Time;durP1;ratioP1;P1;durP2;ratioP2;P2;SDS_P1;SDS_P2;PMS_P1;PMS_P2;Temp;Humidity;BMP_temperature;BMP_pressure;BME280_temperature;BME280_humidity;BME280_pressure;Samples;Min_cycle;Max_cycle;Signal;HPM_P1;HPM_P2
2022/06/30 00:00:38;;;;;;;0.00;0.00;;;21.40;99.90;20.40;96065.00;;;;5050003;28;20261;-74
2022/06/30 00:03:06;;;;;;;0.00;0.00;;;21.30;99.90;20.30;96048.00;;;;5050059;28;20198;-74
2022/06/30 00:05:34;;;;;;;0.00;0.00;;;21.30;99.90;20.40;96077.00;;;;5038186;28;20195;-73
2022/06/30 00:08:04;;;;;;;0.00;0.00;;;21.30;99.90;20.50;96141.00;;;;5036586;28;20739;-75
2022/06/30 00:10:32;;;;;;;0.00;0.00;;;21.40;99.90;20.40;96123.00;;;;5042466;28;20218;-74
2022/06/30 00:13:00;;;;;;;0.00;0.00;;;21.30;99.90;20.40;96194.00;;;;5043306;28;20617;-72
2022/06/30 00:15:28;;;;;;;0.00;0.00;;;21.40;99.90;20.40;96234.00;;;;5038931;28;20191;-73
2022/06/30 00:17:56;;;;;;;0.00;0.00;;;21.40;99.90;20.50;96352.00;;;;5042849;28;20211;-73
2022/06/30 00:20:24;;;;;;;0.00;0.00;;;21.40;99.90;20.50;96437.00;;;;5038445;28;20229;-72
2022/06/30 00:22:52;;;;;;;0.00;0.00;;;21.30;99.90;20.50;96086.00;;;;5049516;28;20205;-72
2022/06/30 00:25:21;;;;;;;0.00;0.00;;;21.50;99.90;20.60;96080.00;;;;5046180;28;20206;-71
2022/06/30 00:27:49;;;;;;;0.00;0.00;;;21.60;99.90;20.40;96084.00;;;;5045523;28;20605;-72
2022/06/30 00:30:17;;;;;;;0.00;0.00;;;21.60;99.90;20.60;96080.00;;;;5030475;28;20598;-73
2022/06/30 00:32:45;;;;;;;0.00;0.00;;;21.60;99.90;20.70;96083.00;;;;5036801;28;20190;-73
2022/06/30 00:35:13;;;;;;;0.00;0.00;;;21.60;99.90;20.70;96060.00;;;;5038972;28;20725;-71
2022/06/30 00:37:41;;;;;;;0.00;0.00;;;21.60;99.90;20.70;96077.00;;;;5032059;28;20222;-71
2022/06/30 00:40:10;;;;;;;0.00;0.00;;;21.60;99.90;20.70;96066.00;;;;5048479;28;20229;-72
2022/06/30 00:42:40;;;;;;;0.00;0.00;;;21.60;99.90;20.70;96053.00;;;;5051180;28;20202;-72
2022/06/30 00:45:09;;;;;;;0.00;0.00;;;21.60;99.90;20.70;96077.00;;;;5040492;28;20620;-72
2022/06/30 00:47:37;;;;;;;0.00;0.00;;;21.50;99.90;20.70;96085.00;;;;5049225;28;20195;-73
2022/06/30 00:50:08;;;;;;;0.00;0.00;;;21.60;99.90;20.70;96083.00;;;;5050415;28;20214;-72
2022/06/30 00:52:37;;;;;;;0.00;0.00;;;21.60;99.90;20.70;96076.00;;;;5049222;28;20198;-73
2022/06/30 00:55:07;;;;;;;0.00;0.00;;;21.60;99.90;20.70;96085.00;;;;5045613;28;20209;-73
2022/06/30 00:57:38;;;;;;;0.00;0.00;;;21.60;99.90;20.80;96084.00;;;;5048095;28;20279;-73
2022/06/30 01:00:10;;;;;;;0.00;0.00;;;21.60;99.90;20.80;96084.00;;;;5039020;28;20223;-73
2022/06/30 01:02:40;;;;;;;0.00;0.00;;;21.60;99.90;20.80;96094.00;;;;5035714;28;20253;-73
2022/06/30 01:05:09;;;;;;;0.00;0.00;;;21.60;99.90;20.70;96074.00;;;;5043141;28;20226;-72
2022/06/30 01:07:37;;;;;;;0.00;0.00;;;21.60;99.90;20.70;96070.00;;;;5049004;28;20252;-72
2022/06/30 01:12:52;;;;;;;0.00;0.00;;;21.60;99.90;20.70;96082.00;;;;5046952;28;20221;-73
2022/06/30 01:15:22;;;;;;;0.00;0.00;;;21.60;99.90;20.70;96078.00;;;;5041361;28;20199;-74
2022/06/30 01:17:51;;;;;;;0.00;0.00;;;21.60;99.90;20.70;96072.00;;;;5041143;28;20232;-74
2022/06/30 01:20:26;;;;;;;0.00;0.00;;;21.60;99.90;20.60;96053.00;;;;5044958;28;20720;-74
2022/06/30 01:22:57;;;;;;;0.00;0.00;;;21.50;99.90;20.60;96063.00;;;;5035170;28;20192;-74
2022/06/30 01:25:25;;;;;;;0.00;0.00;;;21.50;99.90;20.60;96041.00;;;;5043722;28;20190;-74
2022/06/30 01:27:54;;;;;;;0.00;0.00;;;21.50;99.90;20.60;96053.00;;;;5045418;28;20199;-73
2022/06/30 01:30:23;;;;;;;0.00;0.00;;;21.50;99.90;20.60;96053.00;;;;5046432;28;20558;-72
2022/06/30 01:32:54;;;;;;;0.00;0.00;;;21.50;99.90;20.60;96054.00;;;;5039001;28;20231;-73
2022/06/30 01:35:22;;;;;;;0.00;0.00;;;21.50;99.90;20.60;96072.00;;;;5046868;28;20194;-72
2022/06/30 01:37:56;;;;;;;0.00;0.00;;;21.50;99.90;20.50;95933.00;;;;5046224;28;20215;-73
2022/06/30 01:40:27;;;;;;;0.00;0.00;;;21.40;99.90;20.60;96088.00;;;;5047461;28;20276;-72
2022/06/30 01:42:55;;;;;;;0.00;0.00;;;21.50;99.90;20.60;96093.00;;;;5047577;28;20187;-73
2022/06/30 01:45:24;;;;;;;0.00;0.00;;;21.50;99.90;20.60;96175.00;;;;5046080;28;20195;-73
2022/06/30 01:47:53;;;;;;;0.00;0.00;;;21.50;99.90;20.50;96125.00;;;;5052262;28;20202;-73
2022/06/30 01:50:27;;;;;;;0.00;0.00;;;21.40;99.90;20.60;96114.00;;;;5044108;28;20229;-72
2022/06/30 01:52:57;;;;;;;0.00;0.00;;;21.50;99.90;20.60;96117.00;;;;5050716;28;20257;-74
2022/06/30 01:55:26;;;;;;;0.00;0.00;;;21.50;99.90;20.60;96122.00;;;;5046889;28;20603;-73
2022/06/30 01:57:55;;;;;;;0.00;0.00;;;21.50;99.90;20.60;96112.00;;;;5045253;28;20227;-73
2022/06/30 02:00:26;;;;;;;0.00;0.00;;;21.50;99.90;20.60;96094.00;;;;5046269;28;20221;-71
2022/06/30 02:02:54;;;;;;;0.00;0.00;;;21.50;99.90;20.50;96104.00;;;;5039768;28;20610;-71
2022/06/30 02:05:24;;;;;;;0.00;0.00;;;21.50;99.90;20.50;96081.00;;;;5050294;28;20203;-71
2022/06/30 02:07:53;;;;;;;0.00;0.00;;;21.40;99.90;20.50;96094.00;;;;5043613;28;20435;-73
2022/06/30 02:10:24;;;;;;;0.00;0.00;;;21.40;99.90;20.50;96101.00;;;;5042793;28;20271;-71
2022/06/30 02:12:52;;;;;;;0.00;0.00;;;21.40;99.90;20.60;96086.00;;;;5054266;28;20186;-72
2022/06/30 02:15:23;;;;;;;0.00;0.00;;;21.50;99.90;20.60;96084.00;;;;5039363;28;20263;-72
2022/06/30 02:17:54;;;;;;;0.00;0.00;;;21.50;99.90;20.60;96090.00;;;;5034730;28;20226;-73
2022/06/30 02:20:23;;;;;;;0.00;0.00;;;21.50;99.90;20.60;96100.00;;;;5034264;28;20222;-73
2022/06/30 02:22:55;;;;;;;0.00;0.00;;;21.50;99.90;20.60;96094.00;;;;5049667;28;20557;-72
2022/06/30 02:25:27;;;;;;;0.00;0.00;;;21.50;99.90;20.50;96089.00;;;;5036344;28;20277;-72
2022/06/30 02:27:56;;;;;;;0.00;0.00;;;21.50;99.90;20.60;96096.00;;;;5040021;28;20213;-72
2022/06/30 02:30:25;;;;;;;0.00;0.00;;;21.50;99.90;20.50;96091.00;;;;5052220;28;20218;-73
2022/06/30 02:32:53;;;;;;;0.00;0.00;;;21.40;99.90;20.50;96097.00;;;;5036778;28;20203;-72
2022/06/30 02:35:22;;;;;;;0.00;0.00;;;21.40;99.90;20.30;96125.00;;;;5035893;28;20210;-72
2022/06/30 02:37:50;;;;;;;0.00;0.00;;;21.30;99.90;20.30;96249.00;;;;5033365;28;20233;-73
2022/06/30 02:40:19;;;;;;;0.00;0.00;;;21.20;99.90;20.30;96258.00;;;;5034224;28;20269;-72
2022/06/30 02:42:48;;;;;;;0.00;0.00;;;21.20;99.90;20.40;96254.00;;;;5036948;28;20253;-73
2022/06/30 02:45:16;;;;;;;0.00;0.00;;;21.30;99.90;20.50;96211.00;;;;5046077;28;20203;-72
2022/06/30 02:47:45;;;;;;;0.00;0.00;;;21.30;99.90;20.40;96252.00;;;;5051008;28;20229;-74
2022/06/30 02:50:14;;;;;;;0.00;0.00;;;21.30;99.90;20.40;96247.00;;;;5053210;28;20219;-72
2022/06/30 02:52:43;;;;;;;0.00;0.00;;;21.30;99.90;20.30;96247.00;;;;5045743;28;20194;-71
2022/06/30 02:55:11;;;;;;;0.00;0.00;;;21.20;99.90;20.30;96324.00;;;;5053017;28;20190;-72
2022/06/30 02:57:39;;;;;;;0.00;0.00;;;21.10;99.90;20.30;96249.00;;;;5053724;28;20201;-72
2022/06/30 03:00:11;;;;;;;0.00;0.00;;;21.20;99.90;20.40;96247.00;;;;5056180;28;20534;-72
2022/06/30 03:02:40;;;;;;;0.00;0.00;;;21.30;99.90;20.30;96179.00;;;;5052721;28;20210;-73
2022/06/30 03:05:09;;;;;;;0.00;0.00;;;21.20;99.90;20.30;96168.00;;;;5050208;28;20205;-73
2022/06/30 03:07:37;;;;;;;0.00;0.00;;;21.20;99.90;20.30;96164.00;;;;5045574;28;20666;-73
2022/06/30 03:10:06;;;;;;;0.00;0.00;;;21.20;99.90;20.40;96163.00;;;;5047348;28;20226;-72
2022/06/30 03:12:35;;;;;;;0.00;0.00;;;21.30;99.90;20.40;96159.00;;;;5049369;28;20261;-73
2022/06/30 03:15:05;;;;;;;0.00;0.00;;;21.30;99.90;20.40;96149.00;;;;5052853;28;20207;-72
2022/06/30 03:17:35;;;;;;;0.00;0.00;;;21.30;99.90;20.30;96158.00;;;;5053732;28;20232;-73
2022/06/30 03:20:03;;;;;;;0.00;0.00;;;21.20;99.90;20.30;96174.00;;;;5053200;28;20437;-73
2022/06/30 03:22:31;;;;;;;0.00;0.00;;;21.30;99.90;20.30;96163.00;;;;5048515;28;20738;-74
2022/06/30 03:24:59;;;;;;;0.00;0.00;;;21.30;99.90;20.30;96173.00;;;;5046755;28;20596;-74
2022/06/30 03:27:27;;;;;;;0.00;0.00;;;21.30;99.90;20.30;96156.00;;;;5032574;28;20685;-74
2022/06/30 03:29:55;;;;;;;0.00;0.00;;;21.20;99.90;20.20;96125.00;;;;5032525;28;20210;-74
2022/06/30 03:32:23;;;;;;;0.00;0.00;;;21.10;99.90;20.30;96147.00;;;;5033595;28;20203;-74
2022/06/30 03:34:53;;;;;;;0.00;0.00;;;21.20;99.90;20.40;96249.00;;;;5037766;28;20203;-74
2022/06/30 03:37:21;;;;;;;0.00;0.00;;;21.30;99.90;20.40;96211.00;;;;5051242;28;20202;-75
2022/06/30 03:39:49;;;;;;;0.00;0.00;;;21.30;99.90;20.40;96172.00;;;;5036769;28;20944;-74
2022/06/30 03:42:17;;;;;;;0.00;0.00;;;21.30;99.90;20.30;96157.00;;;;5047974;28;20252;-74
2022/06/30 03:44:45;;;;;;;0.00;0.00;;;21.20;99.90;20.30;96167.00;;;;5039373;28;20210;-74
2022/06/30 03:47:13;;;;;;;0.00;0.00;;;21.20;99.90;20.40;96170.00;;;;5032414;28;20195;-74
2022/06/30 03:49:41;;;;;;;0.00;0.00;;;21.30;99.90;20.40;96046.00;;;;5046482;28;20218;-74
2022/06/30 03:52:10;;;;;;;0.00;0.00;;;21.30;99.90;20.50;96074.00;;;;5050712;28;20233;-74
2022/06/30 03:54:39;;;;;;;0.00;0.00;;;21.40;99.90;20.40;96101.00;;;;5040155;28;20690;-74
2022/06/30 03:57:07;;;;;;;0.00;0.00;;;21.40;99.90;20.40;96104.00;;;;5037923;28;20194;-74
2022/06/30 03:59:36;;;;;;;0.00;0.00;;;21.40;99.90;20.50;96098.00;;;;5031121;28;20223;-74
2022/06/30 04:02:05;;;;;;;0.00;0.00;;;21.40;99.90;20.50;96122.00;;;;5032210;28;20190;-74
2022/06/30 04:04:33;;;;;;;0.00;0.00;;;21.40;99.90;20.50;96120.00;;;;5042616;28;20198;-75
2022/06/30 04:07:02;;;;;;;0.00;0.00;;;21.40;99.90;20.50;96114.00;;;;5048893;28;20682;-74
2022/06/30 04:09:31;;;;;;;0.00;0.00;;;21.40;99.90;20.50;96130.00;;;;5049400;28;20223;-73
2022/06/30 04:11:59;;;;;;;0.00;0.00;;;21.40;99.90;20.50;96144.00;;;;5038991;28;20603;-73
2022/06/30 04:14:27;;;;;;;0.00;0.00;;;21.40;99.90;20.60;96127.00;;;;5048857;28;20205;-74
2022/06/30 04:16:55;;;;;;;0.00;0.00;;;21.50;99.90;20.60;96137.00;;;;5044128;28;20282;-75
2022/06/30 04:19:23;;;;;;;0.00;0.00;;;21.50;99.90;20.60;96114.00;;;;5046353;28;20233;-74
2022/06/30 04:21:51;;;;;;;0.00;0.00;;;21.50;99.90;20.60;96075.00;;;;5042141;28;20195;-75
2022/06/30 04:24:20;;;;;;;0.00;0.00;;;21.50;99.90;20.60;96137.00;;;;5039293;28;20220;-74
2022/06/30 04:26:50;;;;;;;0.00;0.00;;;21.50;99.90;20.60;96151.00;;;;5040818;28;20226;-74
2022/06/30 04:29:18;;;;;;;0.00;0.00;;;21.50;99.90;20.60;96132.00;;;;5042052;28;20230;-76
2022/06/30 04:34:31;;;;;;;0.00;0.00;;;21.40;99.90;20.50;96070.00;;;;5038546;28;20194;-75
2022/06/30 04:36:59;;;;;;;0.00;0.00;;;21.40;99.90;20.40;96132.00;;;;5049706;28;20198;-75
2022/06/30 04:39:27;;;;;;;0.00;0.00;;;21.30;99.90;20.30;96125.00;;;;5039853;28;20261;-75
2022/06/30 04:41:56;;;;;;;0.00;0.00;;;21.20;99.90;20.20;96136.00;;;;5051472;28;20293;-75
2022/06/30 04:44:24;;;;;;;0.00;0.00;;;21.10;99.90;20.20;96142.00;;;;5051609;28;20194;-76
2022/06/30 04:46:52;;;;;;;0.00;0.00;;;21.10;99.90;20.10;96258.00;;;;5031550;28;20194;-74
2022/06/30 04:49:20;;;;;;;0.00;0.00;;;20.90;99.90;20.00;96143.00;;;;5031462;28;20223;-75
2022/06/30 04:51:48;;;;;;;0.00;0.00;;;20.80;99.90;19.90;96144.00;;;;5037083;28;20183;-75
2022/06/30 04:54:16;;;;;;;0.00;0.00;;;20.80;99.90;19.90;96124.00;;;;5053904;28;20256;-74
2022/06/30 04:56:44;;;;;;;0.00;0.00;;;20.70;99.90;19.90;96136.00;;;;5050857;28;20281;-74
2022/06/30 04:59:14;;;;;;;0.00;0.00;;;20.80;99.90;20.10;96150.00;;;;5044300;28;20226;-74
2022/06/30 05:01:42;;;;;;;0.00;0.00;;;21.00;99.90;20.20;96130.00;;;;5039622;28;20199;-74
2022/06/30 05:04:10;;;;;;;0.00;0.00;;;21.10;99.90;20.30;96126.00;;;;5044402;28;20201;-75
2022/06/30 05:06:38;;;;;;;0.00;0.00;;;21.10;99.90;20.20;96127.00;;;;5043945;28;20202;-75
2022/06/30 05:09:06;;;;;;;0.00;0.00;;;21.10;99.90;20.30;96129.00;;;;5046126;28;20287;-75
2022/06/30 05:11:35;;;;;;;0.00;0.00;;;21.20;99.90;20.30;96120.00;;;;5049171;28;20600;-75
2022/06/30 05:14:03;;;;;;;0.00;0.00;;;21.20;99.90;20.40;96124.00;;;;5048056;28;20199;-76
2022/06/30 05:16:32;;;;;;;0.00;0.00;;;21.30;99.90;20.40;96122.00;;;;5050678;28;20661;-74
2022/06/30 05:19:01;;;;;;;0.00;0.00;;;21.20;99.90;20.30;96138.00;;;;5049556;28;20739;-77
2022/06/30 05:21:28;;;;;;;0.00;0.00;;;21.20;99.90;20.30;96113.00;;;;5053838;28;20291;-75
2022/06/30 05:26:42;;;;;;;0.00;0.00;;;21.10;99.90;20.00;96107.00;;;;5050214;28;20198;-73
2022/06/30 05:29:10;;;;;;;0.00;0.00;;;21.00;99.90;20.00;96127.00;;;;5048849;28;20276;-74
2022/06/30 05:31:40;;;;;;;0.00;0.00;;;21.00;99.90;20.10;96079.00;;;;5051494;28;20217;-75
2022/06/30 05:34:08;;;;;;;0.00;0.00;;;21.00;99.90;20.20;96116.00;;;;5045759;28;20199;-74
2022/06/30 05:36:36;;;;;;;0.00;0.00;;;21.10;99.90;20.20;96103.00;;;;5050588;28;20187;-75
2022/06/30 05:39:04;;;;;;;0.00;0.00;;;21.10;99.90;20.20;96110.00;;;;5046078;28;20226;-75
2022/06/30 05:41:32;;;;;;;0.00;0.00;;;21.10;99.90;20.10;96121.00;;;;5045625;28;20187;-74
2022/06/30 05:44:00;;;;;;;0.00;0.00;;;21.00;99.90;20.20;96103.00;;;;5048037;28;20230;-76
2022/06/30 05:46:28;;;;;;;0.00;0.00;;;21.10;99.90;20.20;96092.00;;;;5047664;28;20201;-74
2022/06/30 05:48:58;;;;;;;0.00;0.00;;;21.20;99.90;20.30;96121.00;;;;5044025;28;20598;-75
2022/06/30 05:51:26;;;;;;;0.00;0.00;;;21.20;99.90;20.40;96112.00;;;;5039864;28;20195;-75
2022/06/30 05:53:54;;;;;;;0.00;0.00;;;21.30;99.90;20.30;96108.00;;;;5044749;28;20217;-73
2022/06/30 05:56:22;;;;;;;0.00;0.00;;;21.20;99.90;20.30;96106.00;;;;5043043;28;20214;-75
2022/06/30 05:58:49;;;;;;;0.00;0.00;;;21.20;99.90;20.40;96104.00;;;;5042699;28;20670;-75
2022/06/30 06:01:18;;;;;;;0.00;0.00;;;21.20;99.90;20.40;96092.00;;;;5041983;28;20219;-75
2022/06/30 06:03:46;;;;;;;0.00;0.00;;;21.30;99.90;20.50;96099.00;;;;5053452;28;20194;-74
2022/06/30 06:06:15;;;;;;;0.00;0.00;;;21.30;99.90;20.50;96129.00;;;;5049586;28;20187;-75
2022/06/30 06:08:43;;;;;;;0.00;0.00;;;21.30;99.90;20.60;96118.00;;;;5047872;28;20202;-74
2022/06/30 06:11:11;;;;;;;0.00;0.00;;;21.50;99.90;20.80;96093.00;;;;5041298;28;20285;-74
2022/06/30 06:13:39;;;;;;;0.00;0.00;;;21.60;99.90;20.80;96105.00;;;;5048648;28;20256;-75
2022/06/30 06:16:07;;;;;;;0.00;0.00;;;21.60;99.90;20.90;96127.00;;;;5052604;28;20202;-74
2022/06/30 06:18:36;;;;;;;0.00;0.00;;;21.80;99.90;21.10;96135.00;;;;5048279;28;20650;-74
2022/06/30 06:21:04;;;;;;;0.00;0.00;;;21.90;99.90;21.10;96142.00;;;;5038058;28;20269;-74
2022/06/30 06:23:49;;;;;;;0.00;0.00;;;21.90;99.90;21.20;96142.00;;;;5044893;28;20202;-74
2022/06/30 06:26:17;;;;;;;0.00;0.00;;;22.00;99.90;21.20;96175.00;;;;5053186;28;20655;-74
2022/06/30 06:31:32;;;;;;;0.00;0.00;;;22.20;99.90;21.40;96154.00;;;;5036810;28;20198;-75
2022/06/30 06:34:02;;;;;;;0.00;0.00;;;22.20;99.90;21.30;96122.00;;;;5051168;28;20199;-75
2022/06/30 06:36:31;;;;;;;0.00;0.00;;;22.20;99.90;21.30;96142.00;;;;5054461;28;20199;-74
2022/06/30 06:39:00;;;;;;;0.00;0.00;;;22.10;99.90;21.30;96157.00;;;;5048840;28;20218;-75
2022/06/30 06:41:29;;;;;;;0.00;0.00;;;22.10;99.90;21.30;96148.00;;;;5040614;28;20211;-75
2022/06/30 06:43:57;;;;;;;0.00;0.00;;;22.20;99.90;21.40;96142.00;;;;5041395;28;20202;-75
2022/06/30 06:46:27;;;;;;;0.00;0.00;;;22.20;99.90;21.40;96151.00;;;;5054590;28;20240;-75
2022/06/30 06:48:59;;;;;;;0.00;0.00;;;22.20;99.90;21.50;96159.00;;;;5047291;28;20198;-74
2022/06/30 06:51:27;;;;;;;0.00;0.00;;;22.40;99.90;21.60;96148.00;;;;5054818;28;20198;-75
2022/06/30 06:53:56;;;;;;;0.00;0.00;;;22.40;99.90;21.60;96170.00;;;;5057358;28;20190;-75
2022/06/30 06:56:26;;;;;;;0.00;0.00;;;22.40;99.90;21.60;96165.00;;;;5051204;28;20199;-74
2022/06/30 06:58:59;;;;;;;0.00;0.00;;;22.30;99.90;21.60;96174.00;;;;5037684;28;20218;-74
2022/06/30 07:01:28;;;;;;;0.00;0.00;;;22.40;99.90;21.70;96167.00;;;;5053904;28;20264;-75
2022/06/30 07:03:56;;;;;;;0.00;0.00;;;22.60;99.90;21.80;96164.00;;;;5055741;28;20258;-73
2022/06/30 07:06:24;;;;;;;0.00;0.00;;;22.60;99.90;22.00;96316.00;;;;5044260;28;20574;-74
2022/06/30 07:08:52;;;;;;;0.00;0.00;;;22.70;99.90;21.90;96211.00;;;;5055367;28;20206;-74
2022/06/30 07:11:20;;;;;;;0.00;0.00;;;22.70;99.90;22.00;96219.00;;;;5048507;28;20199;-75
2022/06/30 07:13:50;;;;;;;0.00;0.00;;;22.70;99.90;22.10;96278.00;;;;5046762;28;20201;-74
2022/06/30 07:16:18;;;;;;;0.00;0.00;;;22.80;99.90;22.20;96247.00;;;;5040539;28;20670;-73
2022/06/30 07:18:46;;;;;;;0.00;0.00;;;22.90;99.90;22.30;96205.00;;;;5044849;28;20195;-75
2022/06/30 07:21:15;;;;;;;0.00;0.00;;;23.10;99.90;22.60;96213.00;;;;5038602;28;20269;-75
2022/06/30 07:23:43;;;;;;;0.00;0.00;;;23.30;99.90;22.80;96170.00;;;;5053000;28;20206;-75
2022/06/30 07:26:12;;;;;;;0.00;0.00;;;23.50;99.90;22.90;96168.00;;;;5052330;28;20198;-75
2022/06/30 07:28:42;;;;;;;0.00;0.00;;;23.70;99.90;23.10;96166.00;;;;5046264;28;20216;-75
2022/06/30 07:31:23;;;;;;;0.00;0.00;;;23.80;99.90;23.20;96178.00;;;;5041463;28;20214;-74
2022/06/30 07:33:52;;;;;;;0.00;0.00;;;23.90;99.90;23.10;96142.00;;;;5051166;28;20642;-75
2022/06/30 07:36:20;;;;;;;0.00;0.00;;;23.90;99.90;23.20;96166.00;;;;5049751;28;20194;-75
2022/06/30 07:38:49;;;;;;;0.00;0.00;;;24.00;99.90;23.50;96181.00;;;;5055106;28;20194;-75
2022/06/30 07:41:18;;;;;;;0.00;0.00;;;24.20;99.90;23.60;96169.00;;;;5047582;28;20277;-74
2022/06/30 07:43:46;;;;;;;0.00;0.00;;;24.30;99.90;23.50;96178.00;;;;5049137;28;20199;-75
2022/06/30 07:46:15;;;;;;;0.00;0.00;;;24.30;99.90;23.40;96176.00;;;;5042473;28;20229;-75
2022/06/30 07:48:45;;;;;;;0.00;0.00;;;24.20;99.90;23.50;96239.00;;;;5052030;28;20203;-75
2022/06/30 07:51:13;;;;;;;0.00;0.00;;;24.30;99.90;23.60;96174.00;;;;5053047;28;20206;-75
2022/06/30 07:53:41;;;;;;;0.00;0.00;;;24.40;99.90;23.60;96169.00;;;;5057303;28;20202;-75
2022/06/30 07:56:10;;;;;;;0.00;0.00;;;24.40;99.90;24.00;96158.00;;;;5054492;28;20202;-73
2022/06/30 07:58:38;;;;;;;0.00;0.00;;;24.60;99.90;24.20;96195.00;;;;5052623;28;20209;-74
2022/06/30 08:01:06;;;;;;;0.00;0.00;;;24.80;99.90;24.40;96144.00;;;;5053435;28;20587;-74
2022/06/30 08:03:41;;;;;;;0.00;0.00;;;25.00;99.90;24.50;96129.00;;;;5051967;28;20190;-75
2022/06/30 08:06:11;;;;;;;0.00;0.00;;;25.10;99.90;24.70;96136.00;;;;5053947;28;20573;-75
2022/06/30 08:08:39;;;;;;;0.00;0.00;;;25.40;99.90;24.80;96140.00;;;;5050883;28;20554;-75
2022/06/30 08:11:08;;;;;;;0.00;0.00;;;25.40;99.90;24.70;96118.00;;;;5047325;28;20225;-76
2022/06/30 08:13:37;;;;;;;0.00;0.00;;;25.30;99.90;24.60;96148.00;;;;5055766;28;20211;-74
2022/06/30 08:16:05;;;;;;;0.00;0.00;;;25.40;99.90;25.00;96152.00;;;;5051688;28;20194;-75
2022/06/30 08:18:33;;;;;;;0.00;0.00;;;25.60;99.90;25.20;96158.00;;;;5049623;28;20608;-75
2022/06/30 08:21:02;;;;;;;0.00;0.00;;;25.80;99.90;25.40;96159.00;;;;5051541;28;20250;-75
2022/06/30 08:23:31;;;;;;;0.00;0.00;;;25.90;99.90;25.60;96158.00;;;;5046676;28;20207;-76
2022/06/30 08:25:59;;;;;;;0.00;0.00;;;26.20;99.90;25.80;96097.00;;;;5046549;28;20205;-76
2022/06/30 08:28:28;;;;;;;0.00;0.00;;;26.40;99.90;26.10;96151.00;;;;5050243;28;20190;-75
2022/06/30 08:30:56;;;;;;;0.00;0.00;;;26.60;99.90;26.20;96149.00;;;;5052780;28;20725;-75
2022/06/30 08:33:24;;;;;;;0.00;0.00;;;26.70;99.90;26.00;96146.00;;;;5052365;28;20190;-75
2022/06/30 08:35:52;;;;;;;0.00;0.00;;;26.50;99.90;26.00;96163.00;;;;5039082;28;20199;-75
2022/06/30 08:38:30;;;;;;;0.00;0.00;;;26.70;99.90;25.50;96150.00;;;;5037149;28;20548;-75
2022/06/30 08:43:46;;;;;;;0.00;0.00;;;26.40;99.90;25.40;96167.00;;;;5050977;28;20190;-75
2022/06/30 08:46:16;;;;;;;0.00;0.00;;;26.30;99.90;25.40;96163.00;;;;5061842;28;20198;-75
2022/06/30 08:48:44;;;;;;;0.00;0.00;;;26.20;99.90;25.20;96216.00;;;;5035912;28;20202;-73
2022/06/30 08:51:15;;;;;;;0.00;0.00;;;26.00;99.90;25.30;96153.00;;;;5055113;28;20198;-75
2022/06/30 08:53:53;;;;;;;0.00;0.00;;;26.00;99.90;25.20;96136.00;;;;5056621;28;20202;-74
2022/06/30 08:56:22;;;;;;;0.00;0.00;;;26.10;99.90;25.70;96143.00;;;;5058410;28;20186;-75
2022/06/30 08:58:54;;;;;;;0.00;0.00;;;26.30;99.90;26.10;96153.00;;;;5049191;28;20195;-74
2022/06/30 09:01:24;;;;;;;0.00;0.00;;;26.60;99.90;26.40;96142.00;;;;5059296;28;20214;-74
2022/06/30 09:03:53;;;;;;;0.00;0.00;;;26.90;99.90;26.60;96163.00;;;;5046491;28;20191;-74
2022/06/30 09:06:21;;;;;;;0.00;0.00;;;27.10;99.90;26.80;96181.00;;;;5047771;28;20721;-75
2022/06/30 09:09:06;;;;;;;0.00;0.00;;;27.30;99.90;27.00;96220.00;;;;5056287;28;20218;-75
2022/06/30 09:11:50;;;;;;;0.00;0.00;;;27.60;99.90;27.30;96207.00;;;;5069221;28;20197;-74
2022/06/30 09:14:37;;;;;;;0.00;0.00;;;27.80;99.90;27.60;96188.00;;;;5049755;28;20222;-74
2022/06/30 09:17:09;;;;;;;0.00;0.00;;;28.10;99.90;27.90;96193.00;;;;5067558;28;20212;-74
2022/06/30 09:19:50;;;;;;;0.00;0.00;;;28.40;99.90;28.30;96128.00;;;;5056891;28;20254;-74
2022/06/30 09:22:19;;;;;;;0.00;0.00;;;28.60;99.90;28.50;96197.00;;;;5064549;28;20252;-73
2022/06/30 09:24:56;;;;;;;0.00;0.00;;;29.00;99.90;28.70;96198.00;;;;5070592;28;20206;-74
2022/06/30 09:27:27;;;;;;;0.00;0.00;;;29.20;99.90;28.80;96201.00;;;;5068958;28;20236;-76
2022/06/30 09:30:01;;;;;;;0.00;0.00;;;29.30;99.90;29.10;96218.00;;;;5043732;28;20257;-75
2022/06/30 09:32:49;;;;;;;0.00;0.00;;;29.50;99.90;29.20;96215.00;;;;5037853;28;20222;-76
2022/06/30 09:35:20;;;;;;;0.00;0.00;;;29.70;99.90;29.10;96200.00;;;;5038157;28;20210;-76
2022/06/30 09:38:00;;;;;;;0.00;0.00;;;29.70;99.90;29.40;96223.00;;;;5052473;28;20210;-76
2022/06/30 09:40:33;;;;;;;0.00;0.00;;;29.90;99.90;29.60;96230.00;;;;5045593;28;20250;-76
2022/06/30 09:43:01;;;;;;;0.00;0.00;;;30.00;99.90;29.40;96213.00;;;;5033580;28;20252;-76
2022/06/30 09:45:40;;;;;;;0.00;0.00;;;30.00;99.90;29.20;96215.00;;;;5032514;28;20187;-76
2022/06/30 09:48:12;;;;;;;0.00;0.00;;;29.80;99.90;29.10;96208.00;;;;5046469;28;20194;-77
2022/06/30 09:50:40;;;;;;;0.00;0.00;;;29.70;99.90;28.60;96175.00;;;;5041027;28;20214;-76
2022/06/30 09:53:13;;;;;;;0.00;0.00;;;29.30;99.90;28.20;96207.00;;;;5048422;28;20198;-76
2022/06/30 09:55:45;;;;;;;0.00;0.00;;;29.10;99.90;28.40;96204.00;;;;5046776;28;20210;-76
2022/06/30 09:58:16;;;;;;;0.00;0.00;;;29.10;99.90;28.50;96193.00;;;;5035526;28;20192;-76
2022/06/30 10:00:48;;;;;;;0.00;0.00;;;29.20;99.90;28.40;96187.00;;;;5036852;28;20448;-76
2022/06/30 10:03:18;;;;;;;0.00;0.00;;;29.10;99.90;28.40;96196.00;;;;5042773;28;20309;-73
2022/06/30 10:05:48;;;;;;;0.00;0.00;;;29.00;99.90;28.20;96187.00;;;;5044327;28;20190;-74
2022/06/30 10:08:20;;;;;;;0.00;0.00;;;29.00;99.90;28.10;96189.00;;;;5039103;28;20339;-73
2022/06/30 10:10:49;;;;;;;0.00;0.00;;;28.90;99.90;28.20;96179.00;;;;5051388;28;20218;-74
2022/06/30 10:13:19;;;;;;;0.00;0.00;;;28.80;99.90;28.20;96175.00;;;;5045844;28;20277;-73
2022/06/30 10:15:54;;;;;;;0.00;0.00;;;28.80;99.90;28.00;96165.00;;;;5048551;28;20190;-74
2022/06/30 10:18:27;;;;;;;0.00;0.00;;;28.70;99.90;28.20;96169.00;;;;5042825;28;20692;-74
2022/06/30 10:20:58;;;;;;;0.00;0.00;;;28.80;99.90;28.50;96170.00;;;;5045986;28;20708;-73
2022/06/30 10:23:26;;;;;;;0.00;0.00;;;29.00;99.90;28.00;96166.00;;;;5048131;28;20627;-74
2022/06/30 10:25:56;;;;;;;0.00;0.00;;;28.80;99.90;28.10;96170.00;;;;5042834;28;20214;-74
2022/06/30 10:28:27;;;;;;;0.00;0.00;;;28.90;99.90;28.20;96189.00;;;;5049055;28;20194;-74
2022/06/30 10:31:07;;;;;;;0.00;0.00;;;28.90;99.90;28.00;96174.00;;;;5036489;28;20234;-74
2022/06/30 10:33:48;;;;;;;0.00;0.00;;;28.70;99.90;27.80;96154.00;;;;5043719;28;20598;-74
2022/06/30 10:36:27;;;;;;;0.00;0.00;;;28.40;99.90;27.60;96114.00;;;;5049880;28;20202;-75
2022/06/30 10:39:05;;;;;;;0.00;0.00;;;28.20;99.90;27.70;96167.00;;;;5050637;28;20564;-74
2022/06/30 10:41:45;;;;;;;0.00;0.00;;;28.30;99.90;27.90;96176.00;;;;5044939;28;20707;-74
2022/06/30 10:44:20;;;;;;;0.00;0.00;;;28.50;99.90;28.00;96165.00;;;;5057457;28;20216;-74
2022/06/30 10:47:09;;;;;;;0.00;0.00;;;28.60;99.90;27.70;96149.00;;;;5039711;28;20230;-74
2022/06/30 10:49:56;;;;;;;0.00;0.00;;;28.50;99.90;27.80;96138.00;;;;5054543;28;20313;-74
2022/06/30 10:52:31;;;;;;;0.00;0.00;;;28.50;99.90;27.70;96136.00;;;;5049517;28;20229;-74
2022/06/30 10:55:04;;;;;;;0.00;0.00;;;28.50;99.90;27.80;96135.00;;;;5035906;28;20230;-74
2022/06/30 10:58:07;;;;;;;0.00;0.00;;;28.50;99.90;27.70;96141.00;;;;5044134;28;20230;-74
2022/06/30 11:00:59;;;;;;;0.00;0.00;;;28.50;99.90;27.30;96115.00;;;;5039515;28;20313;-74
2022/06/30 11:04:03;;;;;;;0.00;0.00;;;28.30;99.90;27.60;96126.00;;;;5036980;28;20219;-74
2022/06/30 11:07:09;;;;;;;0.00;0.00;;;28.30;99.90;27.70;96141.00;;;;5034406;28;20312;-74
2022/06/30 11:10:01;;;;;;;0.00;0.00;;;28.30;99.90;27.80;96128.00;;;;5031666;28;20218;-74
2022/06/30 11:13:10;;;;;;;0.00;0.00;;;28.40;99.90;27.80;96131.00;;;;5048978;28;20198;-74
2022/06/30 11:15:58;;;;;;;0.00;0.00;;;28.40;99.90;27.80;96132.00;;;;5043098;28;20195;-74
2022/06/30 11:18:28;;;;;;;0.00;0.00;;;28.50;99.90;27.80;96129.00;;;;5049710;28;20195;-74
2022/06/30 11:20:57;;;;;;;0.00;0.00;;;28.40;99.90;27.90;96125.00;;;;5033403;28;20203;-75
2022/06/30 11:23:26;;;;;;;0.00;0.00;;;28.40;99.90;27.90;96093.00;;;;5047054;28;20276;-74